Time;durP1;ratioP1;P1;durP2;ratioP2;P2;SDS_P1;SDS_P2;PMS_P1;PMS_P2;Temp;Humidity;BMP_temperature;BMP_pressure;BME280_temperature;BME280_humidity;BME280_pressure;Samples;Min_cycle;Max_cycle;Signal;HPM_P1;HPM_P2
2023/09/07 00:01:48;;;;;;;3.55;3.00;;;23.50;70.60;;;;;;5016032;28;20041;-74
2023/09/07 00:04:14;;;;;;;3.75;3.03;;;23.40;70.60;;;;;;5016047;28;20026;-74
2023/09/07 00:06:43;;;;;;;6.50;3.13;;;23.40;70.70;;;;;;5016026;28;20034;-74
2023/09/07 00:09:11;;;;;;;5.95;3.20;;;23.40;70.40;;;;;;5016125;28;20045;-74
2023/09/07 00:11:37;;;;;;;7.50;3.47;;;23.40;70.60;;;;;;5015792;28;20046;-74
2023/09/07 00:14:03;;;;;;;3.70;2.92;;;23.30;70.70;;;;;;5015721;28;20125;-74
2023/09/07 00:16:34;;;;;;;3.33;3.00;;;23.30;70.90;;;;;;5014732;28;20067;-74
2023/09/07 00:18:59;;;;;;;4.00;2.95;;;23.30;71.10;;;;;;5015918;28;20026;-74
2023/09/07 00:21:25;;;;;;;4.47;2.95;;;23.30;70.80;;;;;;5015780;28;20021;-74
2023/09/07 00:23:51;;;;;;;10.38;3.97;;;23.30;70.80;;;;;;5015791;28;20030;-74
2023/09/07 00:26:17;;;;;;;5.22;3.20;;;23.30;70.80;;;;;;5015570;28;20478;-75
2023/09/07 00:28:42;;;;;;;8.68;3.60;;;23.20;70.80;;;;;;5015395;28;20034;-74
2023/09/07 00:31:08;;;;;;;7.90;3.30;;;23.20;70.80;;;;;;5030874;28;20022;-76
2023/09/07 00:33:34;;;;;;;4.68;2.92;;;23.20;71.00;;;;;;5015663;28;20038;-75
2023/09/07 00:36:03;;;;;;;6.22;3.30;;;23.20;70.90;;;;;;5015341;28;20053;-73
2023/09/07 00:38:29;;;;;;;5.40;2.92;;;23.20;71.10;;;;;;5015464;28;20436;-73
2023/09/07 00:40:54;;;;;;;4.32;3.38;;;23.20;72.00;;;;;;5015339;28;20018;-74
2023/09/07 00:43:20;;;;;;;4.03;2.90;;;23.20;71.80;;;;;;5015271;28;20443;-73
2023/09/07 00:45:46;;;;;;;9.52;3.10;;;23.20;71.50;;;;;;5015664;28;20109;-73
2023/09/07 00:48:14;;;;;;;9.65;3.47;;;23.10;71.30;;;;;;5015346;28;20113;-73
2023/09/07 00:50:41;;;;;;;4.35;3.20;;;23.10;71.00;;;;;;5015130;28;20018;-73
2023/09/07 00:53:07;;;;;;;7.07;3.25;;;23.10;71.00;;;;;;5015059;28;20410;-73
2023/09/07 00:55:34;;;;;;;6.78;3.22;;;23.00;71.30;;;;;;5015225;28;20022;-73
2023/09/07 00:58:03;;;;;;;5.15;3.10;;;23.00;71.50;;;;;;5013397;28;20038;-73
2023/09/07 01:00:29;;;;;;;5.10;3.20;;;22.90;71.70;;;;;;5012418;28;20065;-73
2023/09/07 01:02:55;;;;;;;4.60;2.97;;;22.90;72.10;;;;;;5027406;28;20032;-73
2023/09/07 01:05:34;;;;;;;5.15;2.90;;;22.90;72.10;;;;;;5013927;28;20068;-74
2023/09/07 01:08:08;;;;;;;4.05;3.30;;;22.90;71.80;;;;;;5013557;28;20470;-73
2023/09/07 01:10:33;;;;;;;4.90;3.03;;;22.80;71.70;;;;;;5014454;28;20087;-73
2023/09/07 01:12:59;;;;;;;3.88;2.97;;;22.80;72.00;;;;;;5014527;28;20033;-73
2023/09/07 01:15:25;;;;;;;4.60;2.90;;;22.70;72.10;;;;;;5014611;28;20095;-73
2023/09/07 01:17:51;;;;;;;6.55;3.05;;;22.70;72.20;;;;;;5012997;28;20030;-73
2023/09/07 01:20:18;;;;;;;5.18;3.03;;;22.70;72.80;;;;;;5014203;28;20513;-73
2023/09/07 01:22:45;;;;;;;5.88;3.47;;;22.70;72.70;;;;;;5014594;28;20119;-73
2023/09/07 01:25:11;;;;;;;5.60;3.20;;;22.70;72.50;;;;;;5014546;28;20026;-73
2023/09/07 01:27:37;;;;;;;9.68;3.78;;;22.60;72.60;;;;;;5014204;28;20113;-74
2023/09/07 01:30:03;;;;;;;4.45;3.00;;;22.60;72.90;;;;;;5014221;28;20101;-73
2023/09/07 01:32:28;;;;;;;6.32;3.30;;;22.50;73.00;;;;;;5014491;28;20030;-73
2023/09/07 01:34:58;;;;;;;6.53;3.00;;;22.50;72.90;;;;;;5014229;28;20026;-74
2023/09/07 01:37:23;;;;;;;5.25;3.30;;;22.50;72.80;;;;;;5014173;28;20473;-73
2023/09/07 01:39:49;;;;;;;6.05;2.90;;;22.50;72.70;;;;;;5014230;28;20051;-73
2023/09/07 01:42:15;;;;;;;3.50;2.75;;;22.50;72.80;;;;;;5014154;28;20053;-73
2023/09/07 01:44:43;;;;;;;3.08;2.67;;;22.50;72.60;;;;;;5014146;28;20481;-73
2023/09/07 01:47:08;;;;;;;4.95;3.38;;;22.50;72.50;;;;;;5014133;28;20022;-74
2023/09/07 01:49:34;;;;;;;5.00;2.80;;;22.50;72.50;;;;;;5014267;28;20030;-74
2023/09/07 01:52:00;;;;;;;8.68;3.75;;;22.50;72.50;;;;;;5013957;28;20030;-74
2023/09/07 01:54:26;;;;;;;5.15;3.05;;;22.50;72.90;;;;;;5013902;28;20029;-75
2023/09/07 01:56:51;;;;;;;5.50;3.35;;;22.50;73.20;;;;;;5014046;28;20021;-73
2023/09/07 01:59:17;;;;;;;4.15;3.30;;;22.40;73.30;;;;;;5013813;28;20018;-73
2023/09/07 02:01:43;;;;;;;9.48;3.70;;;22.40;73.30;;;;;;5013852;28;20029;-73
2023/09/07 02:04:09;;;;;;;5.75;4.47;;;22.40;73.40;;;;;;5013754;28;20109;-74
2023/09/07 02:06:34;;;;;;;7.35;3.50;;;22.30;73.50;;;;;;5012445;28;20025;-73
2023/09/07 02:09:00;;;;;;;5.60;3.75;;;22.20;73.70;;;;;;5013725;28;20034;-74
2023/09/07 02:11:26;;;;;;;7.25;3.65;;;22.20;74.20;;;;;;5011928;28;20076;-74
2023/09/07 02:13:52;;;;;;;5.65;3.15;;;22.20;74.30;;;;;;5028904;28;20064;-74
2023/09/07 02:16:18;;;;;;;6.82;3.70;;;22.20;74.70;;;;;;5013663;28;20014;-75
2023/09/07 02:18:45;;;;;;;5.72;3.55;;;22.10;74.60;;;;;;5013175;28;20167;-74
2023/09/07 02:21:11;;;;;;;4.70;3.53;;;22.00;74.80;;;;;;5013408;28;20025;-74
2023/09/07 02:23:38;;;;;;;5.25;3.67;;;22.00;75.20;;;;;;5013226;28;20470;-74
2023/09/07 02:26:04;;;;;;;7.00;3.63;;;22.00;75.20;;;;;;5013490;28;20100;-74
2023/09/07 02:28:30;;;;;;;5.80;3.67;;;21.90;75.40;;;;;;5013271;28;20128;-74
2023/09/07 02:31:05;;;;;;;5.25;3.30;;;21.90;75.80;;;;;;5013544;28;20061;-74
2023/09/07 02:33:32;;;;;;;7.78;3.95;;;21.90;75.80;;;;;;5013322;28;20030;-74
2023/09/07 02:35:58;;;;;;;10.52;4.10;;;21.90;75.80;;;;;;5013464;28;20100;-73
2023/09/07 02:38:24;;;;;;;7.97;4.20;;;21.80;75.80;;;;;;5013408;28;20026;-73
2023/09/07 02:40:50;;;;;;;5.35;4.10;;;21.80;75.80;;;;;;5013530;28;20026;-73
2023/09/07 02:43:16;;;;;;;6.35;4.20;;;21.80;76.10;;;;;;5013148;28;20021;-74
2023/09/07 02:45:42;;;;;;;7.53;3.97;;;21.80;76.00;;;;;;5013421;28;20029;-73
2023/09/07 02:48:08;;;;;;;7.13;3.40;;;21.80;75.90;;;;;;5013283;28;20030;-73
2023/09/07 02:50:34;;;;;;;8.52;4.32;;;21.70;76.20;;;;;;5013190;28;20100;-73
2023/09/07 02:53:00;;;;;;;4.28;3.88;;;21.70;76.60;;;;;;5013085;28;20466;-73
2023/09/07 02:55:27;;;;;;;6.22;3.60;;;21.70;76.50;;;;;;5013113;28;20485;-73
2023/09/07 02:57:53;;;;;;;7.30;3.63;;;21.70;76.50;;;;;;5013253;28;20034;-73
2023/09/07 03:00:19;;;;;;;5.70;3.88;;;21.60;76.50;;;;;;5013336;28;20049;-73
2023/09/07 03:02:45;;;;;;;5.00;3.70;;;21.60;76.60;;;;;;5013084;28;20017;-74
2023/09/07 03:05:11;;;;;;;4.97;3.70;;;21.60;76.40;;;;;;5013034;28;20101;-74
2023/09/07 03:07:39;;;;;;;4.50;3.75;;;21.60;76.70;;;;;;5013204;28;20033;-75
2023/09/07 03:10:05;;;;;;;4.50;3.42;;;21.50;76.70;;;;;;5012940;28;20038;-74
2023/09/07 03:12:31;;;;;;;4.95;3.88;;;21.50;77.10;;;;;;5013231;28;20539;-74
2023/09/07 03:14:57;;;;;;;5.43;3.83;;;21.40;77.20;;;;;;5011762;28;20018;-75
2023/09/07 03:17:22;;;;;;;4.75;3.45;;;21.40;77.70;;;;;;5012853;28;20129;-74
2023/09/07 03:19:48;;;;;;;6.13;3.70;;;21.40;77.70;;;;;;5012887;28;20087;-74
2023/09/07 03:22:14;;;;;;;9.65;3.85;;;21.40;77.80;;;;;;5013095;28;20068;-74
2023/09/07 03:24:40;;;;;;;4.15;3.67;;;21.50;78.00;;;;;;5013163;28;20018;-74
2023/09/07 03:27:06;;;;;;;8.85;3.53;;;21.50;78.10;;;;;;5013015;28;20044;-74
2023/09/07 03:29:33;;;;;;;9.10;3.53;;;21.50;77.80;;;;;;5012664;28;20076;-73
2023/09/07 03:32:00;;;;;;;6.13;3.85;;;21.60;77.20;;;;;;5015967;28;20482;-74
2023/09/07 03:34:26;;;;;;;7.38;3.92;;;21.50;77.00;;;;;;5016550;28;20062;-75
2023/09/07 03:36:51;;;;;;;5.72;3.90;;;21.60;77.20;;;;;;5016631;28;20549;-74
2023/09/07 03:39:22;;;;;;;8.50;3.90;;;21.50;77.00;;;;;;5016533;28;20101;-74
2023/09/07 03:41:48;;;;;;;5.40;3.65;;;21.40;77.20;;;;;;5016592;28;20057;-75
2023/09/07 03:44:14;;;;;;;7.07;3.75;;;21.40;77.30;;;;;;5016623;28;20065;-74
2023/09/07 03:46:39;;;;;;;7.25;4.05;;;21.40;77.50;;;;;;5016419;28;20026;-74
2023/09/07 03:49:05;;;;;;;6.57;4.32;;;21.40;77.50;;;;;;5016378;28;20037;-74
2023/09/07 03:51:31;;;;;;;6.05;3.80;;;21.30;77.60;;;;;;5016155;28;20022;-74
2023/09/07 03:53:57;;;;;;;5.68;3.80;;;21.30;77.80;;;;;;5015036;28;20026;-75
2023/09/07 03:56:23;;;;;;;5.13;3.70;;;21.30;77.90;;;;;;5016210;28;20018;-74
2023/09/07 03:58:49;;;;;;;5.38;4.07;;;21.40;77.90;;;;;;5016163;28;20033;-73
2023/09/07 04:01:14;;;;;;;8.77;4.00;;;21.30;77.50;;;;;;5016176;28;20042;-74
2023/09/07 04:03:41;;;;;;;6.95;3.67;;;21.30;77.70;;;;;;5015998;28;20037;-74
2023/09/07 04:06:07;;;;;;;7.03;3.85;;;21.20;78.00;;;;;;5015923;28;20026;-74
2023/09/07 04:08:33;;;;;;;11.15;3.70;;;21.20;78.20;;;;;;5015926;28;20037;-73
2023/09/07 04:11:04;;;;;;;7.43;3.95;;;21.10;78.30;;;;;;5015800;28;20054;-73
2023/09/07 04:13:29;;;;;;;5.90;3.97;;;21.10;79.40;;;;;;5015907;28;20022;-74
2023/09/07 04:15:55;;;;;;;7.78;4.10;;;21.10;78.80;;;;;;5015439;28;20386;-73
2023/09/07 04:18:21;;;;;;;6.53;4.00;;;21.00;78.80;;;;;;5015579;28;20026;-74
2023/09/07 04:20:47;;;;;;;9.15;4.10;;;21.00;78.90;;;;;;5015652;28;20021;-73
2023/09/07 04:23:13;;;;;;;10.02;3.90;;;21.00;79.20;;;;;;5015611;28;20030;-73
2023/09/07 04:25:39;;;;;;;9.15;4.07;;;21.00;79.30;;;;;;5015687;28;20017;-73
2023/09/07 04:28:05;;;;;;;7.72;3.85;;;20.90;79.20;;;;;;5015468;28;20038;-74
2023/09/07 04:30:32;;;;;;;8.98;3.63;;;20.90;79.30;;;;;;5015521;28;20041;-74
2023/09/07 04:32:58;;;;;;;7.20;4.22;;;20.90;79.70;;;;;;5015683;28;20025;-73
2023/09/07 04:35:30;;;;;;;5.63;4.10;;;20.80;79.60;;;;;;5015451;28;20022;-73
2023/09/07 04:37:56;;;;;;;11.25;4.28;;;20.80;79.50;;;;;;5015513;28;20032;-73
2023/09/07 04:40:22;;;;;;;4.15;3.35;;;20.80;79.60;;;;;;5015347;28;20025;-74
2023/09/07 04:42:48;;;;;;;4.85;3.20;;;20.70;79.80;;;;;;5015189;28;20482;-74
2023/09/07 04:45:14;;;;;;;7.65;3.63;;;20.80;80.40;;;;;;5013999;28;20164;-74
2023/09/07 04:47:39;;;;;;;5.57;3.60;;;20.90;79.70;;;;;;5015440;28;20088;-74
2023/09/07 04:50:06;;;;;;;18.63;4.40;;;20.90;79.30;;;;;;5015020;28;20030;-73
2023/09/07 04:52:32;;;;;;;13.73;5.05;;;20.90;79.30;;;;;;5015229;28;20038;-73
2023/09/07 04:54:58;;;;;;;16.17;4.50;;;20.80;79.20;;;;;;5015268;28;20018;-73
2023/09/07 04:57:23;;;;;;;15.45;4.13;;;20.80;79.30;;;;;;5013575;28;20037;-73
2023/09/07 04:59:49;;;;;;;8.63;3.85;;;20.80;79.50;;;;;;5015221;28;20022;-73
2023/09/07 05:02:15;;;;;;;12.13;4.28;;;20.80;79.70;;;;;;5015020;28;20037;-73
2023/09/07 05:04:41;;;;;;;8.38;4.07;;;20.80;79.80;;;;;;5015041;28;20033;-73
2023/09/07 05:07:06;;;;;;;7.40;3.65;;;20.80;79.90;;;;;;5014865;28;20044;-73
2023/09/07 05:09:33;;;;;;;6.43;3.55;;;20.70;80.00;;;;;;5014823;28;20370;-73
2023/09/07 05:11:58;;;;;;;5.10;3.80;;;20.80;80.20;;;;;;5014693;28;20046;-73
2023/09/07 05:14:25;;;;;;;4.15;3.30;;;20.80;80.00;;;;;;5014716;28;20036;-74
2023/09/07 05:16:51;;;;;;;7.30;3.15;;;20.80;80.00;;;;;;5014611;28;20026;-74
2023/09/07 05:19:17;;;;;;;5.57;3.63;;;20.80;79.60;;;;;;5014609;28;20045;-74
2023/09/07 05:21:42;;;;;;;7.45;3.45;;;20.80;79.60;;;;;;5014701;28;20022;-73
2023/09/07 05:24:08;;;;;;;5.53;3.67;;;20.80;80.10;;;;;;5014595;28;20108;-73
2023/09/07 05:26:34;;;;;;;10.13;3.95;;;20.80;80.80;;;;;;5014129;28;20033;-74
2023/09/07 05:29:00;;;;;;;6.82;3.78;;;20.80;80.60;;;;;;5014336;28;20133;-74
2023/09/07 05:31:26;;;;;;;9.70;3.88;;;20.80;81.00;;;;;;5014320;28;20431;-74
2023/09/07 05:33:52;;;;;;;5.57;3.30;;;20.80;81.40;;;;;;5014627;28;20056;-74
2023/09/07 05:36:18;;;;;;;9.40;2.92;;;20.80;81.40;;;;;;5014188;28;20065;-73
2023/09/07 05:38:44;;;;;;;13.77;3.50;;;20.90;81.10;;;;;;5014208;28;20022;-73
2023/09/07 05:41:10;;;;;;;9.98;3.80;;;20.90;80.90;;;;;;5014189;28;20032;-73
2023/09/07 05:43:36;;;;;;;8.57;3.00;;;20.90;80.70;;;;;;5014128;28;20037;-74
2023/09/07 05:46:02;;;;;;;8.93;3.83;;;21.00;80.90;;;;;;5014186;28;20026;-74
2023/09/07 05:48:28;;;;;;;9.07;3.55;;;21.00;80.80;;;;;;5014100;28;20621;-74
2023/09/07 05:50:54;;;;;;;9.30;3.75;;;21.00;80.70;;;;;;5014053;28;20022;-73
2023/09/07 05:53:20;;;;;;;11.23;4.05;;;21.10;81.00;;;;;;5013689;28;20172;-73
2023/09/07 05:55:46;;;;;;;6.72;3.30;;;21.10;81.00;;;;;;5013977;28;20018;-75
2023/09/07 05:58:13;;;;;;;12.65;3.38;;;21.10;81.10;;;;;;5013638;28;20496;-73
2023/09/07 06:00:40;;;;;;;11.60;3.20;;;21.20;81.00;;;;;;5013899;28;20108;-74
2023/09/07 06:03:07;;;;;;;5.10;3.65;;;21.20;80.90;;;;;;5013933;28;20026;-73
2023/09/07 06:05:35;;;;;;;12.77;2.95;;;21.20;81.10;;;;;;5013662;28;20101;-74
2023/09/07 06:08:01;;;;;;;14.18;3.13;;;21.30;80.80;;;;;;5013761;28;20045;-73
2023/09/07 06:10:29;;;;;;;7.90;3.20;;;21.30;80.10;;;;;;5013521;28;20494;-73
2023/09/07 06:12:54;;;;;;;8.93;3.15;;;21.40;80.00;;;;;;5013890;28;20429;-74
2023/09/07 06:15:20;;;;;;;12.07;4.18;;;21.40;80.80;;;;;;5013776;28;20025;-73
2023/09/07 06:17:46;;;;;;;4.45;3.17;;;21.50;80.40;;;;;;5013606;28;20030;-74
2023/09/07 06:20:12;;;;;;;7.88;3.45;;;21.50;80.10;;;;;;5013793;28;20026;-74
2023/09/07 06:22:38;;;;;;;21.95;4.00;;;21.50;79.90;;;;;;5013566;28;20030;-73
2023/09/07 06:25:04;;;;;;;7.22;3.03;;;21.50;79.60;;;;;;5013487;28;20080;-74
2023/09/07 06:27:30;;;;;;;6.55;3.53;;;21.60;79.40;;;;;;5013479;28;20026;-73
2023/09/07 06:29:56;;;;;;;8.95;3.22;;;21.60;79.70;;;;;;5013660;28;20025;-73
2023/09/07 06:32:22;;;;;;;7.68;2.88;;;21.70;80.20;;;;;;5013605;28;20030;-73
2023/09/07 06:34:48;;;;;;;12.35;3.25;;;21.70;80.40;;;;;;5013712;28;20026;-73
2023/09/07 06:37:13;;;;;;;10.27;3.22;;;21.70;80.20;;;;;;5013488;28;20034;-74
2023/09/07 06:39:42;;;;;;;7.68;3.25;;;21.80;80.20;;;;;;5012992;28;20033;-75
2023/09/07 06:42:09;;;;;;;18.92;4.13;;;21.80;80.30;;;;;;5013527;28;20026;-74
2023/09/07 06:44:35;;;;;;;13.65;3.65;;;21.90;80.60;;;;;;5013448;28;20014;-75
2023/09/07 06:47:00;;;;;;;15.32;4.30;;;21.90;79.70;;;;;;5013357;28;20028;-75
2023/09/07 06:49:29;;;;;;;8.63;3.22;;;21.90;79.40;;;;;;5013213;28;20041;-74
2023/09/07 06:51:58;;;;;;;8.23;3.30;;;22.00;79.20;;;;;;5013255;28;20041;-74
2023/09/07 06:54:23;;;;;;;12.80;3.47;;;22.00;79.00;;;;;;5013542;28;20029;-74
2023/09/07 06:56:49;;;;;;;5.82;3.58;;;22.10;78.60;;;;;;5013302;28;20044;-74
2023/09/07 06:59:15;;;;;;;10.05;3.25;;;22.10;78.70;;;;;;5028516;28;20030;-74
2023/09/07 07:01:41;;;;;;;6.90;3.20;;;22.20;79.50;;;;;;5013035;28;20018;-74
2023/09/07 07:04:08;;;;;;;11.32;3.42;;;22.20;80.40;;;;;;5012978;28;20483;-73
2023/09/07 07:06:34;;;;;;;10.68;3.65;;;22.20;81.00;;;;;;5015649;28;20025;-74
2023/09/07 07:08:59;;;;;;;9.15;3.90;;;22.30;80.80;;;;;;5017112;28;20038;-77
2023/09/07 07:11:25;;;;;;;6.43;4.18;;;22.30;81.00;;;;;;5016884;28;20081;-74
2023/09/07 07:13:51;;;;;;;9.27;3.85;;;22.30;81.10;;;;;;5017143;28;20026;-74
2023/09/07 07:16:17;;;;;;;12.07;4.63;;;22.30;81.30;;;;;;5016926;28;20084;-75
2023/09/07 07:18:43;;;;;;;10.77;4.30;;;22.40;81.40;;;;;;5016983;28;20101;-73
2023/09/07 07:21:09;;;;;;;6.85;4.03;;;22.40;81.40;;;;;;5016863;28;20022;-74
2023/09/07 07:23:36;;;;;;;7.00;4.38;;;22.50;81.20;;;;;;5016817;28;20037;-73
2023/09/07 07:26:02;;;;;;;8.00;3.95;;;22.60;80.90;;;;;;5016943;28;20370;-73
2023/09/07 07:28:27;;;;;;;7.25;3.63;;;22.60;80.30;;;;;;5016658;28;20033;-74
2023/09/07 07:30:53;;;;;;;7.35;3.03;;;22.70;79.60;;;;;;5016849;28;20413;-73
2023/09/07 07:33:19;;;;;;;5.97;3.50;;;22.70;77.10;;;;;;5015433;28;20026;-73
2023/09/07 07:35:45;;;;;;;3.47;2.90;;;22.80;76.90;;;;;;5016619;28;20493;-73
2023/09/07 07:38:13;;;;;;;6.55;3.33;;;22.90;76.50;;;;;;5016298;28;20033;-72
2023/09/07 07:40:39;;;;;;;7.30;3.03;;;22.90;75.80;;;;;;5016734;28;20022;-73
2023/09/07 07:43:06;;;;;;;8.10;3.22;;;23.00;74.90;;;;;;5015357;28;20034;-73
2023/09/07 07:45:36;;;;;;;3.28;2.83;;;23.10;74.60;;;;;;5031646;28;20040;-73
2023/09/07 07:48:05;;;;;;;9.65;3.15;;;23.10;74.60;;;;;;5016370;28;20038;-73
2023/09/07 07:50:31;;;;;;;6.50;3.60;;;23.20;74.10;;;;;;5016474;28;20109;-73
2023/09/07 07:52:57;;;;;;;8.32;3.17;;;23.30;73.70;;;;;;5016321;28;20025;-73
2023/09/07 07:55:23;;;;;;;8.13;3.47;;;23.30;72.90;;;;;;5016223;28;20081;-73
2023/09/07 07:57:48;;;;;;;8.23;3.45;;;23.40;72.50;;;;;;5014859;28;20021;-73
2023/09/07 08:00:14;;;;;;;8.77;3.30;;;23.40;71.80;;;;;;5015816;28;20034;-73
2023/09/07 08:02:40;;;;;;;8.02;3.13;;;23.50;72.40;;;;;;5015972;28;20065;-73
2023/09/07 08:05:06;;;;;;;9.70;3.10;;;23.60;71.80;;;;;;5015749;28;20032;-73
2023/09/07 08:07:32;;;;;;;5.70;2.92;;;23.60;70.50;;;;;;5015755;28;20022;-73
2023/09/07 08:09:58;;;;;;;4.43;2.70;;;23.70;69.80;;;;;;5015922;28;20107;-73
2023/09/07 08:12:23;;;;;;;4.45;2.75;;;23.80;69.90;;;;;;5031089;28;20034;-74
2023/09/07 08:14:49;;;;;;;6.00;2.80;;;23.80;70.30;;;;;;5015752;28;20022;-74
2023/09/07 08:17:15;;;;;;;7.32;3.35;;;23.90;71.40;;;;;;5015097;28;20025;-73
2023/09/07 08:19:41;;;;;;;4.32;3.17;;;23.90;72.10;;;;;;5015435;28;20014;-74
2023/09/07 08:22:08;;;;;;;7.97;2.63;;;24.00;71.30;;;;;;5015797;28;20134;-73
2023/09/07 08:24:34;;;;;;;5.45;3.05;;;24.00;70.70;;;;;;5015853;28;20022;-75
2023/09/07 08:27:00;;;;;;;4.00;2.80;;;24.10;69.70;;;;;;5015822;28;20117;-73
2023/09/07 08:29:26;;;;;;;4.78;2.72;;;24.10;69.10;;;;;;5015513;28;20037;-73
2023/09/07 08:31:55;;;;;;;8.63;2.90;;;24.20;69.10;;;;;;5015313;28;20022;-74
2023/09/07 08:34:22;;;;;;;7.22;2.80;;;24.20;68.60;;;;;;5015380;28;20026;-73
2023/09/07 08:36:49;;;;;;;3.85;2.72;;;24.30;68.90;;;;;;5015391;28;20466;-73
2023/09/07 08:39:16;;;;;;;6.85;2.50;;;24.40;67.70;;;;;;5015217;28;20026;-73
2023/09/07 08:41:44;;;;;;;6.32;2.40;;;24.40;67.50;;;;;;5015506;28;20042;-74
2023/09/07 08:44:16;;;;;;;9.63;2.85;;;24.50;64.50;;;;;;5015643;28;20096;-73
2023/09/07 08:46:43;;;;;;;4.68;2.70;;;24.50;64.00;;;;;;5015131;28;20041;-73
2023/09/07 08:49:11;;;;;;;7.57;2.67;;;24.60;64.40;;;;;;5015023;28;20030;-73
2023/09/07 08:51:37;;;;;;;5.32;2.75;;;24.60;65.00;;;;;;5015216;28;20091;-73
2023/09/07 08:54:04;;;;;;;4.47;2.45;;;24.70;65.00;;;;;;5015097;28;20087;-75
2023/09/07 08:56:30;;;;;;;5.43;2.63;;;24.70;64.90;;;;;;5013784;28;20382;-73
2023/09/07 08:58:56;;;;;;;3.58;2.40;;;24.80;64.00;;;;;;5014776;28;20029;-73
2023/09/07 09:01:22;;;;;;;8.80;2.67;;;24.80;64.10;;;;;;5014698;28;20084;-73
2023/09/07 09:03:51;;;;;;;11.10;2.85;;;24.90;64.70;;;;;;5014609;28;20105;-73
2023/09/07 09:06:19;;;;;;;6.90;2.47;;;24.90;64.70;;;;;;5015045;28;20029;-73
2023/09/07 09:08:54;;;;;;;4.40;2.58;;;24.90;64.50;;;;;;5014784;28;20489;-73
2023/09/07 09:11:21;;;;;;;8.63;2.90;;;25.00;64.40;;;;;;5014662;28;20049;-73
2023/09/07 09:13:48;;;;;;;5.75;2.60;;;25.00;64.50;;;;;;5014730;28;20036;-73
2023/09/07 09:16:14;;;;;;;8.02;2.80;;;25.10;64.50;;;;;;5014817;28;20030;-73
2023/09/07 09:18:55;;;;;;;5.32;2.80;;;25.20;64.30;;;;;;5014819;28;20029;-73
2023/09/07 09:21:22;;;;;;;6.03;2.70;;;25.20;63.60;;;;;;5014588;28;20034;-73
2023/09/07 09:23:49;;;;;;;3.63;2.63;;;25.20;63.20;;;;;;5014631;28;20036;-73
2023/09/07 09:26:15;;;;;;;10.48;2.60;;;25.30;63.00;;;;;;5014474;28;20021;-73
2023/09/07 09:28:43;;;;;;;4.18;2.38;;;25.40;62.90;;;;;;5013709;28;20092;-73
2023/09/07 09:31:12;;;;;;;5.63;3.22;;;25.40;62.90;;;;;;5014385;28;20105;-73
2023/09/07 09:33:39;;;;;;;5.97;2.83;;;25.50;62.20;;;;;;5013200;28;20057;-73
2023/09/07 09:36:06;;;;;;;5.82;2.85;;;25.50;59.50;;;;;;5014346;28;20474;-73
2023/09/07 09:38:35;;;;;;;9.38;2.90;;;25.70;59.50;;;;;;5014156;28;20497;-73
2023/09/07 09:41:03;;;;;;;4.15;2.70;;;25.70;60.20;;;;;;5014075;28;20447;-73
2023/09/07 09:43:29;;;;;;;8.05;2.70;;;25.70;61.00;;;;;;5014386;28;20489;-74
2023/09/07 09:45:56;;;;;;;8.18;2.63;;;25.80;60.00;;;;;;5014310;28;20037;-73
2023/09/07 09:48:22;;;;;;;6.65;2.70;;;25.90;60.30;;;;;;5014287;28;20092;-74
2023/09/07 09:50:49;;;;;;;6.15;2.67;;;26.00;60.10;;;;;;5014204;28;20029;-73
2023/09/07 09:53:20;;;;;;;6.68;2.78;;;26.00;60.20;;;;;;5014004;28;20493;-75
2023/09/07 09:55:52;;;;;;;8.90;3.25;;;26.10;61.10;;;;;;5013946;28;20072;-73
2023/09/07 09:58:18;;;;;;;8.10;2.50;;;26.10;61.00;;;;;;5013906;28;20026;-74
2023/09/07 10:00:55;;;;;;;3.92;2.60;;;26.20;60.20;;;;;;5012753;28;20164;-74
2023/09/07 10:03:28;;;;;;;6.47;2.33;;;26.30;59.80;;;;;;5012728;28;20049;-73
2023/09/07 10:05:54;;;;;;;5.35;2.30;;;26.30;59.80;;;;;;5013720;28;20045;-73
2023/09/07 10:08:22;;;;;;;5.20;2.53;;;26.40;60.60;;;;;;5013448;28;20033;-74
2023/09/07 10:10:53;;;;;;;9.32;2.92;;;26.50;58.70;;;;;;5013481;28;20038;-74
2023/09/07 10:13:29;;;;;;;11.70;2.85;;;26.50;58.50;;;;;;5013734;28;20057;-73
2023/09/07 10:16:07;;;;;;;4.22;2.50;;;26.60;58.00;;;;;;5013586;28;20026;-74
2023/09/07 10:18:39;;;;;;;6.25;2.75;;;26.60;58.00;;;;;;5013610;28;20026;-73
2023/09/07 10:21:06;;;;;;;6.13;2.35;;;26.60;58.80;;;;;;5013707;28;20030;-74
2023/09/07 10:23:43;;;;;;;5.93;2.60;;;26.70;58.50;;;;;;5013577;28;20568;-74
2023/09/07 10:26:16;;;;;;;4.50;2.53;;;26.80;57.20;;;;;;5013411;28;20101;-73
2023/09/07 10:28:45;;;;;;;2.65;2.28;;;26.90;57.10;;;;;;5013123;28;20034;-73
2023/09/07 10:31:17;;;;;;;7.10;2.15;;;27.00;57.60;;;;;;5013426;28;20486;-74
2023/09/07 10:33:43;;;;;;;5.40;2.83;;;27.00;57.20;;;;;;5012314;28;20030;-74
2023/09/07 10:36:24;;;;;;;7.88;2.40;;;27.10;57.20;;;;;;5013486;28;20393;-75
2023/09/07 10:38:53;;;;;;;7.40;2.75;;;27.20;57.40;;;;;;5013194;28;20112;-74
2023/09/07 10:41:20;;;;;;;8.05;2.65;;;27.20;56.80;;;;;;5013164;28;20434;-74
2023/09/07 10:43:49;;;;;;;6.07;2.95;;;27.30;57.30;;;;;;5013184;28;20121;-75
2023/09/07 10:46:19;;;;;;;3.03;2.58;;;27.40;57.50;;;;;;5012976;28;20450;-74
2023/09/07 10:48:45;;;;;;;5.75;2.90;;;27.40;58.20;;;;;;5013062;28;20037;-74
2023/09/07 10:51:11;;;;;;;5.88;2.60;;;27.50;58.90;;;;;;5013195;28;20018;-74
2023/09/07 10:53:37;;;;;;;4.63;2.53;;;27.60;56.00;;;;;;5013223;28;20026;-75
2023/09/07 10:56:04;;;;;;;3.95;2.22;;;27.70;57.30;;;;;;5013063;28;20470;-74
2023/09/07 10:58:32;;;;;;;3.78;2.40;;;27.70;57.20;;;;;;5012006;28;20482;-74
2023/09/07 11:00:58;;;;;;;4.20;2.88;;;27.80;57.60;;;;;;5013224;28;20378;-75
2023/09/07 11:03:28;;;;;;;4.07;2.67;;;27.90;57.30;;;;;;5013077;28;20057;-75
2023/09/07 11:06:03;;;;;;;4.35;2.38;;;27.90;55.80;;;;;;5013072;28;20148;-75
2023/09/07 11:08:33;;;;;;;9.77;2.75;;;28.00;54.20;;;;;;5012878;28;20034;-74
2023/09/07 11:10:59;;;;;;;3.45;2.45;;;28.10;54.10;;;;;;5012863;28;20537;-75
2023/09/07 11:13:26;;;;;;;3.58;2.45;;;28.10;53.20;;;;;;5011406;28;20074;-74
2023/09/07 11:15:59;;;;;;;5.07;2.30;;;28.10;53.30;;;;;;5012796;28;20030;-74
2023/09/07 11:18:26;;;;;;;4.15;2.40;;;28.10;53.10;;;;;;5012856;28;20090;-74
2023/09/07 11:20:53;;;;;;;4.15;2.55;;;28.20;54.20;;;;;;5011480;28;20053;-74
2023/09/07 11:23:20;;;;;;;3.30;2.35;;;28.20;54.90;;;;;;5013129;28;20463;-75
2023/09/07 11:25:50;;;;;;;5.32;2.70;;;28.30;54.80;;;;;;5013058;28;20482;-74
2023/09/07 11:28:18;;;;;;;2.95;2.20;;;28.40;55.50;;;;;;5011644;28;20390;-74
2023/09/07 11:30:54;;;;;;;5.47;2.63;;;28.40;54.80;;;;;;5012499;28;20100;-75
2023/09/07 11:33:21;;;;;;;7.43;3.28;;;28.50;54.00;;;;;;5012890;28;20030;-74
2023/09/07 11:35:47;;;;;;;5.50;2.47;;;28.50;53.40;;;;;;5012993;28;20049;-74
2023/09/07 11:38:15;;;;;;;3.67;2.78;;;28.60;53.60;;;;;;5012860;28;20466;-75
2023/09/07 11:40:45;;;;;;;2.85;2.55;;;28.60;54.10;;;;;;5012894;28;20382;-74
2023/09/07 11:43:15;;;;;;;7.38;2.63;;;28.70;55.30;;;;;;5012680;28;20475;-75
2023/09/07 11:45:42;;;;;;;5.63;2.80;;;28.80;54.10;;;;;;5012466;28;20034;-75
2023/09/07 11:48:08;;;;;;;4.22;2.40;;;28.80;53.50;;;;;;5012603;28;20537;-74
2023/09/07 11:50:35;;;;;;;4.55;2.60;;;28.90;52.70;;;;;;5011489;28;20084;-75
2023/09/07 11:53:01;;;;;;;8.73;2.65;;;28.90;53.20;;;;;;5016043;28;20109;-77
2023/09/07 11:55:27;;;;;;;3.85;2.67;;;29.00;52.50;;;;;;5016486;28;20101;-74
2023/09/07 11:57:53;;;;;;;4.18;2.40;;;29.00;53.40;;;;;;5031261;28;20026;-75
2023/09/07 12:00:19;;;;;;;6.05;2.67;;;29.10;53.50;;;;;;5015868;28;20022;-75
2023/09/07 12:02:45;;;;;;;5.95;2.72;;;29.10;52.50;;;;;;5016294;28;20466;-74
2023/09/07 12:05:14;;;;;;;8.00;2.97;;;29.00;51.60;;;;;;5016408;28;20073;-74
2023/09/07 12:07:41;;;;;;;6.53;2.85;;;29.10;53.00;;;;;;5031434;28;20031;-74
2023/09/07 12:10:10;;;;;;;6.57;2.80;;;29.10;52.10;;;;;;5015893;28;20046;-75
2023/09/07 12:12:39;;;;;;;8.82;2.85;;;29.20;52.50;;;;;;5015817;28;20030;-74
2023/09/07 12:15:06;;;;;;;6.75;3.10;;;29.30;52.70;;;;;;5015705;28;20490;-74
2023/09/07 12:17:32;;;;;;;7.45;3.00;;;29.30;53.80;;;;;;5016045;28;20034;-74
2023/09/07 12:19:58;;;;;;;6.00;2.60;;;29.40;54.20;;;;;;5016084;28;20022;-74
2023/09/07 12:22:24;;;;;;;5.88;2.80;;;29.40;54.40;;;;;;5015799;28;20030;-75
2023/09/07 12:24:49;;;;;;;6.13;2.90;;;29.40;52.10;;;;;;5015949;28;20100;-74
2023/09/07 12:27:15;;;;;;;9.98;3.17;;;29.50;53.00;;;;;;5015481;28;20022;-74
2023/09/07 12:29:42;;;;;;;3.42;2.30;;;29.50;52.10;;;;;;5014104;28;20042;-74
2023/09/07 12:32:07;;;;;;;6.38;2.78;;;29.50;51.90;;;;;;5015646;28;20022;-74
2023/09/07 12:34:33;;;;;;;9.38;2.95;;;29.50;52.00;;;;;;5015560;28;20037;-74
2023/09/07 12:36:59;;;;;;;6.38;3.22;;;29.40;51.40;;;;;;5015486;28;20021;-74
2023/09/07 12:39:25;;;;;;;6.22;3.00;;;29.50;51.30;;;;;;5015236;28;20049;-75
2023/09/07 12:41:51;;;;;;;6.80;2.80;;;29.40;51.10;;;;;;5015285;28;20021;-74
2023/09/07 12:44:18;;;;;;;6.15;2.75;;;29.40;52.40;;;;;;5015348;28;20080;-74